Time;durP1;ratioP1;P1;durP2;ratioP2;P2;SDS_P1;SDS_P2;PMS_P1;PMS_P2;Temp;Humidity;BMP_temperature;BMP_pressure;BME280_temperature;BME280_humidity;BME280_pressure;Samples;Min_cycle;Max_cycle;Signal;HPM_P1;HPM_P2
2023/02/18 00:01:42;;;;;;;;;;;;;;;16.30;65.00;101435.56;7414163;19;1813;-80
2023/02/18 00:04:11;;;;;;;;;;;;;;;16.30;65.43;101429.38;7413350;19;1851;-81
2023/02/18 00:06:39;;;;;;;;;;;;;;;16.27;65.02;101422.44;7412330;19;1541;-81
2023/02/18 00:09:07;;;;;;;;;;;;;;;16.30;65.11;101424.88;7416063;19;1113;-81
2023/02/18 00:11:37;;;;;;;;;;;;;;;16.28;65.15;101426.78;7413794;19;1950;-80
2023/02/18 00:14:06;;;;;;;;;;;;;;;16.26;65.14;101412.69;7413720;19;1906;-81
2023/02/18 00:16:35;;;;;;;;;;;;;;;16.25;65.38;101419.00;7413768;19;1878;-81
2023/02/18 00:19:08;;;;;;;;;;;;;;;16.25;65.49;101413.69;7412577;19;1753;-80
2023/02/18 00:21:37;;;;;;;;;;;;;;;16.25;65.26;101418.13;7414822;19;1843;-80
2023/02/18 00:24:06;;;;;;;;;;;;;;;16.27;65.50;101417.09;7411213;19;1831;-81
2023/02/18 00:26:34;;;;;;;;;;;;;;;16.24;65.32;101405.75;7411122;19;1834;-80
2023/02/18 00:29:03;;;;;;;;;;;;;;;16.23;65.50;101394.22;7411650;19;1827;-81
2023/02/18 00:31:32;;;;;;;;;;;;;;;16.24;65.42;101387.94;7410306;19;1811;-80
2023/02/18 00:34:01;;;;;;;;;;;;;;;16.26;65.31;101399.34;7420087;19;1200;-81
2023/02/18 00:36:31;;;;;;;;;;;;;;;16.27;64.62;101395.75;7416649;19;1832;-81
2023/02/18 00:39:02;;;;;;;;;;;;;;;16.22;65.18;101389.84;7413762;19;1404;-81
2023/02/18 00:41:30;;;;;;;;;;;;;;;16.22;65.29;101376.50;7414820;19;1871;-81
2023/02/18 00:43:58;;;;;;;;;;;;;;;16.20;65.29;101394.44;7412940;19;1035;-80
2023/02/18 00:46:27;;;;;;;;;;;;;;;16.18;65.11;101377.66;7414226;19;1973;-80
2023/02/18 00:48:55;;;;;;;;;;;;;;;16.19;65.02;101386.53;7411722;19;1886;-80
2023/02/18 00:51:24;;;;;;;;;;;;;;;16.16;65.47;101366.25;7411219;19;1878;-81
2023/02/18 00:53:56;;;;;;;;;;;;;;;16.20;64.99;101365.06;7412050;19;1747;-81
2023/02/18 00:56:25;;;;;;;;;;;;;;;16.14;65.31;101354.81;7413075;19;1822;-80
2023/02/18 00:58:53;;;;;;;;;;;;;;;16.14;65.17;101346.81;7411143;19;1741;-81
2023/02/18 01:01:23;;;;;;;;;;;;;;;16.12;65.52;101332.72;7415634;19;1811;-81
2023/02/18 01:03:51;;;;;;;;;;;;;;;16.13;65.34;101334.41;7419765;19;1752;-81
2023/02/18 01:06:20;;;;;;;;;;;;;;;16.11;65.41;101333.66;7414468;19;1736;-80
2023/02/18 01:08:49;;;;;;;;;;;;;;;16.13;65.62;101326.41;7415045;19;1644;-81
2023/02/18 01:11:20;;;;;;;;;;;;;;;16.12;65.21;101326.53;7412863;19;1891;-80
2023/02/18 01:13:49;;;;;;;;;;;;;;;16.13;65.09;101337.09;7412937;19;1872;-80
2023/02/18 01:16:17;;;;;;;;;;;;;;;16.13;65.71;101328.22;7414349;19;1570;-81
2023/02/18 01:18:45;;;;;;;;;;;;;;;16.10;65.33;101331.97;7411030;19;1733;-80
2023/02/18 01:21:13;;;;;;;;;;;;;;;16.10;65.24;101339.97;7408208;19;1852;-80
2023/02/18 01:23:42;;;;;;;;;;;;;;;16.13;65.64;101337.09;7411441;19;1705;-80
2023/02/18 01:26:11;;;;;;;;;;;;;;;16.08;65.64;101328.53;7412720;19;1541;-81
2023/02/18 01:28:43;;;;;;;;;;;;;;;16.09;65.25;101327.56;7412020;19;1838;-80
2023/02/18 01:31:12;;;;;;;;;;;;;;;16.10;65.43;101323.97;7411697;19;1530;-80
2023/02/18 01:33:40;;;;;;;;;;;;;;;16.08;65.45;101321.38;7414029;19;1055;-80
2023/02/18 01:36:10;;;;;;;;;;;;;;;16.01;65.51;101308.56;7409569;19;1903;-81
2023/02/18 01:38:38;;;;;;;;;;;;;;;16.04;65.66;101313.72;7412427;19;1462;-80
2023/02/18 01:41:07;;;;;;;;;;;;;;;16.08;65.21;101320.53;7412570;19;1756;-81
2023/02/18 01:43:36;;;;;;;;;;;;;;;16.03;65.60;101311.97;7409380;19;1806;-80
2023/02/18 01:46:09;;;;;;;;;;;;;;;16.02;65.30;101321.81;7412218;19;1745;-81
2023/02/18 01:48:40;;;;;;;;;;;;;;;16.01;65.43;101308.56;7410288;19;1479;-81
2023/02/18 01:51:12;;;;;;;;;;;;;;;15.99;65.22;101310.47;7412516;19;1081;-81
2023/02/18 01:53:45;;;;;;;;;;;;;;;16.00;65.52;101314.88;7412038;19;1355;-80
2023/02/18 01:56:16;;;;;;;;;;;;;;;15.99;65.08;101323.81;7409582;19;1926;-80
2023/02/18 01:58:45;;;;;;;;;;;;;;;15.97;65.85;101312.38;7410547;19;1883;-80
2023/02/18 02:01:15;;;;;;;;;;;;;;;15.97;65.80;101307.91;7409783;19;1950;-80
2023/02/18 02:03:44;;;;;;;;;;;;;;;15.97;65.70;101291.06;7409484;19;1877;-80
2023/02/18 02:06:16;;;;;;;;;;;;;;;15.98;65.54;101309.63;7409211;19;1653;-80
2023/02/18 02:08:45;;;;;;;;;;;;;;;15.96;65.30;101305.38;7409425;19;1582;-80
2023/02/18 02:11:19;;;;;;;;;;;;;;;15.95;65.86;101296.47;7410837;19;1818;-80
2023/02/18 02:13:56;;;;;;;;;;;;;;;15.98;65.52;101303.44;7410063;19;1792;-80
2023/02/18 02:16:31;;;;;;;;;;;;;;;16.00;65.40;101299.72;7410206;19;1366;-80
2023/02/18 02:19:06;;;;;;;;;;;;;;;15.96;65.45;101284.03;7409114;19;1550;-80
2023/02/18 02:21:55;;;;;;;;;;;;;;;15.95;65.47;101279.63;7408085;19;2060;-80
2023/02/18 02:24:43;;;;;;;;;;;;;;;15.93;65.23;101293.06;7411312;19;1645;-80
2023/02/18 02:27:14;;;;;;;;;;;;;;;15.91;65.25;101274.50;7409622;19;1741;-80
2023/02/18 02:29:57;;;;;;;;;;;;;;;15.93;65.51;101274.41;7408415;19;1628;-80
2023/02/18 02:32:50;;;;;;;;;;;;;;;15.94;65.42;101277.94;7408958;19;1717;-80
2023/02/18 02:35:25;;;;;;;;;;;;;;;15.83;65.28;101247.47;7403996;19;1807;-81
2023/02/18 02:37:58;;;;;;;;;;;;;;;15.90;65.45;101259.47;7411635;19;1408;-80
2023/02/18 02:40:31;;;;;;;;;;;;;;;15.93;65.24;101246.88;7411338;19;1109;-80
2023/02/18 02:43:07;;;;;;;;;;;;;;;15.89;65.23;101247.06;7409880;19;1852;-80
2023/02/18 02:45:40;;;;;;;;;;;;;;;15.88;65.33;101249.88;7410674;19;1903;-80
2023/02/18 02:48:12;;;;;;;;;;;;;;;15.94;65.49;101246.78;7410353;19;1890;-80
2023/02/18 02:50:47;;;;;;;;;;;;;;;16.41;63.90;101257.81;7409631;19;1894;-80
2023/02/18 02:53:19;;;;;;;;;;;;;;;17.57;61.04;101231.72;7409596;19;1892;-80
2023/02/18 02:55:47;;;;;;;;;;;;;;;18.44;58.88;101242.91;7407736;19;1929;-80
2023/02/18 02:58:17;;;;;;;;;;;;;;;18.93;57.39;101232.84;7409105;19;1499;-80
2023/02/18 03:00:52;;;;;;;;;;;;;;;19.16;56.73;101237.22;7408571;19;1839;-80
2023/02/18 03:03:44;;;;;;;;;;;;;;;19.37;56.54;101247.97;7407594;19;1862;-80
2023/02/18 03:06:26;;;;;;;;;;;;;;;19.56;55.81;101243.81;7409486;19;1779;-80
2023/02/18 03:08:59;;;;;;;;;;;;;;;19.54;56.23;101240.41;7417023;19;1126;-80
2023/02/18 03:11:32;;;;;;;;;;;;;;;19.55;56.00;101245.59;7416000;19;1969;-80
2023/02/18 03:14:06;;;;;;;;;;;;;;;19.56;56.35;101258.06;7415381;19;1557;-80
2023/02/18 03:16:37;;;;;;;;;;;;;;;19.60;56.36;101253.28;7416863;19;1895;-80
2023/02/18 03:19:09;;;;;;;;;;;;;;;19.66;56.01;101267.03;7417198;19;1748;-80
2023/02/18 03:21:43;;;;;;;;;;;;;;;19.64;56.33;101241.34;7415288;19;1733;-80
2023/02/18 03:24:15;;;;;;;;;;;;;;;19.71;56.04;101261.31;7412631;19;1819;-80
2023/02/18 03:26:46;;;;;;;;;;;;;;;19.79;55.79;101266.03;7412291;19;1771;-80
2023/02/18 03:29:16;;;;;;;;;;;;;;;19.76;55.92;101240.31;7414595;19;1630;-80
2023/02/18 03:31:47;;;;;;;;;;;;;;;19.67;56.39;101254.47;7416045;19;1759;-80
2023/02/18 03:34:18;;;;;;;;;;;;;;;19.70;56.27;101221.19;7416811;19;890;-80
2023/02/18 03:36:49;;;;;;;;;;;;;;;19.80;55.93;101244.47;7411516;19;1970;-80
2023/02/18 03:39:19;;;;;;;;;;;;;;;19.70;56.09;101230.09;7415157;19;1732;-80
2023/02/18 03:41:47;;;;;;;;;;;;;;;19.66;56.14;101244.72;7412644;19;1826;-80
2023/02/18 03:44:16;;;;;;;;;;;;;;;19.65;56.53;101224.22;7412565;19;1808;-81
2023/02/18 03:46:45;;;;;;;;;;;;;;;19.68;56.32;101208.75;7414157;19;1462;-81
2023/02/18 03:49:14;;;;;;;;;;;;;;;19.70;55.96;101232.75;7412910;19;1785;-81
2023/02/18 03:51:43;;;;;;;;;;;;;;;19.74;56.22;101196.66;7412336;19;1459;-80
2023/02/18 03:54:14;;;;;;;;;;;;;;;19.78;56.30;101211.53;7413325;19;1746;-81
2023/02/18 03:56:43;;;;;;;;;;;;;;;19.76;56.36;101201.91;7414647;19;1462;-81
2023/02/18 03:59:13;;;;;;;;;;;;;;;19.81;56.04;101232.72;7416395;19;1004;-80
2023/02/18 04:01:41;;;;;;;;;;;;;;;19.15;57.47;101202.47;7414162;19;1395;-80
2023/02/18 04:04:10;;;;;;;;;;;;;;;18.48;59.65;101204.22;7412832;19;1866;-81
2023/02/18 04:06:38;;;;;;;;;;;;;;;18.06;60.44;101190.53;7412927;19;1511;-81
2023/02/18 04:09:07;;;;;;;;;;;;;;;18.17;60.21;101198.59;7412450;19;1633;-80
2023/02/18 04:11:39;;;;;;;;;;;;;;;18.55;59.22;101183.16;7413035;19;997;-80
2023/02/18 04:14:07;;;;;;;;;;;;;;;18.87;58.44;101180.59;7412352;19;1945;-80
2023/02/18 04:16:36;;;;;;;;;;;;;;;19.21;57.46;101173.31;7414154;19;1577;-80
2023/02/18 04:19:04;;;;;;;;;;;;;;;19.24;57.26;101159.66;7414734;19;1780;-80
2023/02/18 04:21:33;;;;;;;;;;;;;;;19.13;57.39;101166.91;7418499;19;1550;-81
2023/02/18 04:24:01;;;;;;;;;;;;;;;19.16;57.89;101185.41;7414119;19;1816;-81
2023/02/18 04:26:30;;;;;;;;;;;;;;;19.08;58.01;101183.38;7413176;19;1514;-81
2023/02/18 04:29:01;;;;;;;;;;;;;;;19.10;57.48;101180.53;7415321;19;1838;-81
2023/02/18 04:31:29;;;;;;;;;;;;;;;19.16;57.35;101163.94;7414804;19;1765;-80
2023/02/18 04:33:57;;;;;;;;;;;;;;;19.15;57.54;101181.88;7412789;19;1415;-81
2023/02/18 04:36:26;;;;;;;;;;;;;;;19.15;57.72;101157.75;7411898;19;1988;-80
2023/02/18 04:38:54;;;;;;;;;;;;;;;19.14;57.58;101160.53;7413439;19;1913;-80
2023/02/18 04:41:22;;;;;;;;;;;;;;;19.10;57.69;101159.97;7414834;19;1838;-80
2023/02/18 04:43:51;;;;;;;;;;;;;;;19.11;57.46;101163.50;7411710;19;1810;-80
2023/02/18 04:46:23;;;;;;;;;;;;;;;19.11;57.58;101153.63;7414212;19;1490;-80
2023/02/18 04:48:51;;;;;;;;;;;;;;;19.12;57.63;101159.81;7414234;19;1451;-80
2023/02/18 04:51:20;;;;;;;;;;;;;;;19.01;57.64;101139.28;7416776;19;1465;-81
2023/02/18 04:53:49;;;;;;;;;;;;;;;19.04;57.78;101150.59;7416494;19;1015;-81
2023/02/18 04:56:17;;;;;;;;;;;;;;;19.03;57.73;101140.84;7412457;19;1617;-80
2023/02/18 04:58:46;;;;;;;;;;;;;;;19.07;57.43;101139.59;7414225;19;2078;-80
2023/02/18 05:01:14;;;;;;;;;;;;;;;19.04;57.58;101139.88;7413395;19;1741;-80
2023/02/18 05:03:47;;;;;;;;;;;;;;;19.03;57.52;101138.16;7411561;19;1850;-81
2023/02/18 05:06:15;;;;;;;;;;;;;;;19.16;57.65;101134.47;7410766;19;1660;-80
2023/02/18 05:08:43;;;;;;;;;;;;;;;19.21;57.59;101130.41;7412538;19;1094;-80
2023/02/18 05:11:12;;;;;;;;;;;;;;;19.29;57.61;101129.78;7411546;19;1955;-81
2023/02/18 05:13:40;;;;;;;;;;;;;;;19.22;57.88;101139.34;7412146;19;1755;-81
2023/02/18 05:16:08;;;;;;;;;;;;;;;19.14;57.83;101118.53;7411568;19;1601;-81
2023/02/18 05:18:36;;;;;;;;;;;;;;;19.15;57.92;101122.03;7412156;19;1841;-81
2023/02/18 05:21:08;;;;;;;;;;;;;;;19.19;58.07;101120.81;7412116;19;1534;-81
2023/02/18 05:23:36;;;;;;;;;;;;;;;19.18;57.86;101119.09;7410982;19;1841;-81
2023/02/18 05:26:04;;;;;;;;;;;;;;;19.17;57.62;101122.78;7412302;19;1749;-81
2023/02/18 05:28:33;;;;;;;;;;;;;;;19.11;57.94;101125.97;7412338;19;1830;-80
2023/02/18 05:31:02;;;;;;;;;;;;;;;19.16;58.07;101147.88;7411256;19;1455;-80
2023/02/18 05:33:30;;;;;;;;;;;;;;;19.17;57.97;101153.09;7412025;19;1965;-80
2023/02/18 05:35:59;;;;;;;;;;;;;;;19.22;57.71;101167.00;7408009;19;1521;-81
2023/02/18 05:38:30;;;;;;;;;;;;;;;19.31;57.95;101135.88;7408870;19;1395;-80
2023/02/18 05:40:58;;;;;;;;;;;;;;;19.28;58.45;101145.03;7410834;19;1424;-81
2023/02/18 05:43:27;;;;;;;;;;;;;;;19.25;58.49;101152.47;7411003;19;1841;-81
2023/02/18 05:45:55;;;;;;;;;;;;;;;19.28;58.75;101169.16;7411586;19;1820;-81
2023/02/18 05:48:23;;;;;;;;;;;;;;;19.26;58.88;101175.63;7409892;19;1373;-81
2023/02/18 05:50:52;;;;;;;;;;;;;;;19.24;59.04;101156.16;7410204;19;1565;-81
2023/02/18 05:53:21;;;;;;;;;;;;;;;19.22;59.11;101161.63;7410799;19;1637;-81
2023/02/18 05:55:52;;;;;;;;;;;;;;;19.32;59.01;101164.41;7410545;19;1646;-80
2023/02/18 05:58:20;;;;;;;;;;;;;;;19.34;58.87;101173.16;7410511;19;1565;-81
2023/02/18 06:00:49;;;;;;;;;;;;;;;19.40;59.08;101169.13;7409354;19;1656;-80
2023/02/18 06:03:18;;;;;;;;;;;;;;;19.38;58.96;101171.09;7409639;19;1841;-80
2023/02/18 06:05:46;;;;;;;;;;;;;;;19.45;58.98;101170.41;7407896;19;1476;-80
2023/02/18 06:08:14;;;;;;;;;;;;;;;19.45;58.56;101180.31;7410509;19;1498;-80
2023/02/18 06:10:43;;;;;;;;;;;;;;;19.47;58.71;101162.25;7407587;19;1852;-80
2023/02/18 06:13:14;;;;;;;;;;;;;;;19.51;58.43;101163.69;7410630;19;1546;-80
2023/02/18 06:15:43;;;;;;;;;;;;;;;19.47;58.98;101163.09;7409437;19;1748;-80
2023/02/18 06:18:12;;;;;;;;;;;;;;;19.46;58.97;101161.41;7410493;19;1490;-81
2023/02/18 06:20:40;;;;;;;;;;;;;;;19.52;58.60;101169.91;7408892;19;1801;-80
2023/02/18 06:23:09;;;;;;;;;;;;;;;19.56;58.68;101160.66;7411228;19;1814;-80
2023/02/18 06:25:37;;;;;;;;;;;;;;;19.25;59.58;101195.38;7411405;19;1895;-80
2023/02/18 06:28:05;;;;;;;;;;;;;;;18.72;61.02;101182.69;7408872;19;1890;-80
2023/02/18 06:30:36;;;;;;;;;;;;;;;18.37;61.97;101190.84;7408867;19;1912;-80
2023/02/18 06:33:05;;;;;;;;;;;;;;;18.54;61.30;101163.53;7409781;19;1842;-81
2023/02/18 06:35:33;;;;;;;;;;;;;;;19.14;60.07;101169.47;7409405;19;1800;-81
2023/02/18 06:38:02;;;;;;;;;;;;;;;19.47;59.32;101172.97;7408734;19;1506;-81
2023/02/18 06:40:31;;;;;;;;;;;;;;;19.04;60.29;101161.31;7407969;19;1487;-81
2023/02/18 06:42:59;;;;;;;;;;;;;;;18.77;60.89;101193.00;7413175;19;1835;-80
2023/02/18 06:45:27;;;;;;;;;;;;;;;18.46;61.82;101187.41;7417751;19;1862;-81
2023/02/18 06:47:58;;;;;;;;;;;;;;;18.33;60.84;101181.34;7412923;19;1898;-82
2023/02/18 06:50:27;;;;;;;;;;;;;;;18.79;60.09;101193.75;7410985;19;1570;-81
2023/02/18 06:52:55;;;;;;;;;;;;;;;19.19;58.81;101175.28;7409583;19;1557;-80
2023/02/18 06:55:23;;;;;;;;;;;;;;;18.94;59.00;101173.78;7415230;19;1736;-81
2023/02/18 06:57:52;;;;;;;;;;;;;;;18.40;60.69;101161.13;7415274;19;1760;-82
2023/02/18 07:00:22;;;;;;;;;;;;;;;18.22;61.37;101192.88;7415697;19;1717;-81
2023/02/18 07:02:50;;;;;;;;;;;;;;;18.65;60.00;101186.81;7413658;19;1495;-81
2023/02/18 07:05:22;;;;;;;;;;;;;;;18.97;59.08;101170.00;7413942;19;1853;-81
2023/02/18 07:07:50;;;;;;;;;;;;;;;19.02;55.05;101213.31;7414805;19;1316;-81
2023/02/18 07:10:18;;;;;;;;;;;;;;;18.52;56.45;101176.22;7416034;19;1910;-81
2023/02/18 07:12:47;;;;;;;;;;;;;;;18.08;56.05;101191.28;7415088;19;1961;-80
2023/02/18 07:15:16;;;;;;;;;;;;;;;17.89;56.76;101203.41;7411828;19;1641;-83
2023/02/18 07:17:44;;;;;;;;;;;;;;;17.84;56.85;101202.88;7414148;19;1461;-84
2023/02/18 07:20:12;;;;;;;;;;;;;;;17.80;56.90;101184.50;7415007;19;1373;-81
2023/02/18 07:22:44;;;;;;;;;;;;;;;17.75;56.63;101194.72;7414795;19;1903;-81
2023/02/18 07:25:13;;;;;;;;;;;;;;;17.68;56.02;101195.16;7413433;19;1879;-83
2023/02/18 07:27:41;;;;;;;;;;;;;;;17.64;56.25;101188.34;7415737;19;1474;-83
2023/02/18 07:30:10;;;;;;;;;;;;;;;17.65;56.68;101208.78;7416845;19;1838;-83
2023/02/18 07:32:39;;;;;;;;;;;;;;;17.60;56.13;101200.22;7413687;19;1555;-82
2023/02/18 07:35:07;;;;;;;;;;;;;;;17.49;55.61;101195.69;7415198;19;1016;-80
2023/02/18 07:37:35;;;;;;;;;;;;;;;17.65;56.41;101170.47;7409712;19;1576;-82
2023/02/18 07:40:07;;;;;;;;;;;;;;;18.31;55.26;101172.59;7413024;19;1887;-80
2023/02/18 07:42:36;;;;;;;;;;;;;;;18.80;53.70;101157.94;7413575;19;1907;-80
2023/02/18 07:45:05;;;;;;;;;;;;;;;18.86;53.34;101158.31;7413998;19;1862;-80
2023/02/18 07:47:33;;;;;;;;;;;;;;;18.62;54.29;101166.50;7414606;19;1492;-80
2023/02/18 07:50:01;;;;;;;;;;;;;;;18.29;55.62;101162.00;7414235;19;1479;-79
2023/02/18 07:52:29;;;;;;;;;;;;;;;18.57;55.81;101141.88;7413297;19;1499;-79
2023/02/18 07:54:58;;;;;;;;;;;;;;;19.13;54.72;101175.78;7414301;19;1816;-79
2023/02/18 07:57:29;;;;;;;;;;;;;;;19.38;54.57;101171.94;7414986;19;1541;-79
2023/02/18 07:59:58;;;;;;;;;;;;;;;18.92;55.87;101161.47;7413395;19;1752;-79
2023/02/18 08:02:27;;;;;;;;;;;;;;;18.42;57.19;101168.09;7411539;19;1744;-80
2023/02/18 08:04:55;;;;;;;;;;;;;;;18.33;57.47;101174.16;7413514;19;1841;-80
2023/02/18 08:07:24;;;;;;;;;;;;;;;18.92;55.93;101173.06;7414465;19;1438;-80
2023/02/18 08:09:52;;;;;;;;;;;;;;;19.29;54.91;101164.63;7419457;19;1495;-80
2023/02/18 08:12:21;;;;;;;;;;;;;;;19.60;54.40;101156.72;7413429;19;1479;-81
2023/02/18 08:14:52;;;;;;;;;;;;;;;19.84;53.15;101178.81;7412767;19;1706;-80
2023/02/18 08:17:21;;;;;;;;;;;;;;;19.75;53.10;101160.78;7417890;19;1739;-80
2023/02/18 08:19:49;;;;;;;;;;;;;;;19.67;53.22;101158.72;7414663;19;1824;-80
2023/02/18 08:22:17;;;;;;;;;;;;;;;19.53;53.25;101164.41;7413502;19;1729;-80
2023/02/18 08:24:45;;;;;;;;;;;;;;;19.52;53.69;101175.25;7413148;19;1843;-80
2023/02/18 08:27:14;;;;;;;;;;;;;;;19.63;53.53;101196.69;7410742;19;1495;-80
2023/02/18 08:29:42;;;;;;;;;;;;;;;19.54;53.68;101181.38;7415556;19;1731;-80
2023/02/18 08:32:14;;;;;;;;;;;;;;;19.58;53.70;101180.13;7411728;19;1895;-80
2023/02/18 08:34:42;;;;;;;;;;;;;;;19.55;53.82;101175.03;7415423;19;1612;-80
2023/02/18 08:37:10;;;;;;;;;;;;;;;19.52;54.04;101165.41;7416296;19;1850;-81
2023/02/18 08:39:39;;;;;;;;;;;;;;;19.60;53.65;101146.00;7417722;19;1619;-81
2023/02/18 08:42:08;;;;;;;;;;;;;;;19.61;53.86;101150.34;7415877;19;1570;-80
2023/02/18 08:44:37;;;;;;;;;;;;;;;19.53;54.12;101156.38;7414993;19;1821;-80
2023/02/18 08:47:06;;;;;;;;;;;;;;;19.58;54.42;101145.28;7411901;19;1664;-81
2023/02/18 08:49:38;;;;;;;;;;;;;;;19.58;54.47;101145.28;7413448;19;1410;-80
2023/02/18 08:52:07;;;;;;;;;;;;;;;19.53;54.45;101148.31;7414761;19;1689;-80
2023/02/18 08:54:36;;;;;;;;;;;;;;;19.62;54.11;101166.34;7412262;19;1514;-80
2023/02/18 08:57:04;;;;;;;;;;;;;;;19.64;54.28;101150.94;7413302;19;1489;-81
2023/02/18 08:59:32;;;;;;;;;;;;;;;19.63;54.50;101145.72;7413130;19;1467;-79
2023/02/18 09:02:00;;;;;;;;;;;;;;;19.60;54.61;101143.31;7412845;19;1688;-80
2023/02/18 09:04:29;;;;;;;;;;;;;;;19.57;54.44;101151.59;7412324;19;1898;-80
2023/02/18 09:07:00;;;;;;;;;;;;;;;19.61;55.00;101148.50;7414870;19;1637;-80
2023/02/18 09:09:28;;;;;;;;;;;;;;;19.55;54.59;101148.19;7412547;19;1625;-80
2023/02/18 09:11:56;;;;;;;;;;;;;;;19.56;54.84;101148.06;7412482;19;1748;-81
2023/02/18 09:14:25;;;;;;;;;;;;;;;19.55;54.94;101137.47;7410761;19;1372;-80
2023/02/18 09:16:53;;;;;;;;;;;;;;;19.56;54.82;101125.78;7410548;19;1855;-79
2023/02/18 09:19:22;;;;;;;;;;;;;;;19.52;54.91;101126.97;7407385;19;1497;-79
2023/02/18 09:21:51;;;;;;;;;;;;;;;19.53;54.76;101134.06;7408398;19;1510;-80
2023/02/18 09:24:23;;;;;;;;;;;;;;;19.57;55.09;101135.50;7407303;19;1854;-80
2023/02/18 09:26:53;;;;;;;;;;;;;;;19.60;54.86;101129.91;7409188;19;1513;-80
2023/02/18 09:29:21;;;;;;;;;;;;;;;19.56;55.23;101126.63;7406469;19;1577;-79
2023/02/18 09:31:49;;;;;;;;;;;;;;;19.60;54.99;101137.94;7409036;19;1527;-80
2023/02/18 09:34:17;;;;;;;;;;;;;;;19.60;55.02;101135.25;7409818;19;1581;-80
2023/02/18 09:36:56;;;;;;;;;;;;;;;19.66;55.05;101142.78;7434491;19;2006;-43
2023/02/18 09:39:24;;;;;;;;;;;;;;;19.66;55.25;101150.81;7435032;19;1749;-43
2023/02/18 09:41:54;;;;;;;;;;;;;;;19.73;55.26;101145.81;7435071;19;1878;-43
2023/02/18 09:44:24;;;;;;;;;;;;;;;19.70;55.20;101129.97;7434673;19;1701;-42
2023/02/18 09:46:54;;;;;;;;;;;;;;;19.70;55.56;101146.06;7435331;19;2050;-43
2023/02/18 09:49:24;;;;;;;;;;;;;;;19.70;55.20;101140.69;7437152;19;2706;-43
2023/02/18 09:51:53;;;;;;;;;;;;;;;19.61;55.25;101142.31;7434140;19;2115;-43
2023/02/18 09:54:23;;;;;;;;;;;;;;;19.57;55.46;101159.66;7436260;19;1884;-42
2023/02/18 09:56:53;;;;;;;;;;;;;;;19.58;55.46;101137.22;7432480;19;1851;-43
2023/02/18 09:59:22;;;;;;;;;;;;;;;19.53;55.50;101140.28;7434918;19;1986;-43
2023/02/18 10:01:53;;;;;;;;;;;;;;;19.60;55.64;101170.13;7433248;19;2057;-43
2023/02/18 10:04:24;;;;;;;;;;;;;;;19.62;55.50;101142.19;7435137;19;1554;-43
2023/02/18 10:06:53;;;;;;;;;;;;;;;19.58;55.81;101121.97;7419758;19;1852;-42
2023/02/18 10:09:27;;;;;;;;;;;;;;;19.66;55.58;101156.19;7434572;19;1878;-42
2023/02/18 10:11:57;;;;;;;;;;;;;;;19.67;55.90;101131.06;7431974;19;1738;-42
2023/02/18 10:14:27;;;;;;;;;;;;;;;19.63;55.78;101106.31;7434685;19;2055;-42
2023/02/18 10:16:55;;;;;;;;;;;;;;;19.64;55.77;101124.13;7430990;19;2065;-43
2023/02/18 10:19:25;;;;;;;;;;;;;;;19.70;55.51;101117.38;7432882;19;1748;-42
2023/02/18 10:21:54;;;;;;;;;;;;;;;19.75;55.96;101114.34;7432310;19;2121;-42
2023/02/18 10:24:31;;;;;;;;;;;;;;;19.77;55.90;101105.16;7432892;19;1774;-42
2023/02/18 10:27:00;;;;;;;;;;;;;;;19.82;55.74;101113.69;7429435;19;1814;-42
2023/02/18 10:29:31;;;;;;;;;;;;;;;19.78;55.76;101106.88;6914276;19;10000075;-42
2023/02/18 10:32:01;;;;;;;;;;;;;;;19.71;55.73;101111.06;7418832;19;2280;-42
2023/02/18 10:34:40;;;;;;;;;;;;;;;19.69;55.87;101113.00;7426313;19;1783;-42
2023/02/18 10:37:11;;;;;;;;;;;;;;;19.71;55.93;101103.00;7424662;19;2299;-42
2023/02/18 10:39:47;;;;;;;;;;;;;;;19.77;55.95;101099.78;6910941;19;10000578;-43
2023/02/18 10:42:27;;;;;;;;;;;;;;;19.75;55.77;101091.03;6905122;19;10000193;-42
2023/02/18 10:45:01;;;;;;;;;;;;;;;19.72;55.95;101099.34;7425547;19;1771;-43
2023/02/18 10:47:37;;;;;;;;;;;;;;;19.69;55.95;101110.31;7406960;19;1821;-43
2023/02/18 10:50:10;;;;;;;;;;;;;;;19.70;55.83;101114.69;7404114;19;1724;-42
2023/02/18 10:52:42;;;;;;;;;;;;;;;19.70;56.17;101098.59;7401767;19;2050;-43
2023/02/18 10:55:14;;;;;;;;;;;;;;;19.69;56.12;101075.41;7401886;19;2089;-42
2023/02/18 10:57:51;;;;;;;;;;;;;;;19.74;56.43;101089.34;6875649;19;9999777;-42
2023/02/18 11:00:22;;;;;;;;;;;;;;;19.77;56.31;101077.47;7393195;19;1812;-43
2023/02/18 11:03:03;;;;;;;;;;;;;;;19.77;55.86;101089.06;7393035;19;2085;-42
2023/02/18 11:05:32;;;;;;;;;;;;;;;19.79;55.74;101088.94;7396112;19;1647;-42
2023/02/18 11:08:01;;;;;;;;;;;;;;;19.79;55.86;101070.16;7397391;19;1767;-42
2023/02/18 11:10:34;;;;;;;;;;;;;;;19.90;55.67;101061.19;7397999;19;1365;-42
2023/02/18 11:13:04;;;;;;;;;;;;;;;20.02;55.32;101062.78;7397494;19;2060;-42
2023/02/18 11:15:33;;;;;;;;;;;;;;;20.00;55.21;101051.31;7397931;19;2217;-42
2023/02/18 11:18:14;;;;;;;;;;;;;;;20.01;55.33;101069.13;7397893;19;2022;-42
2023/02/18 11:20:43;;;;;;;;;;;;;;;20.00;55.42;101048.66;7395743;19;1916;-42
2023/02/18 11:23:17;;;;;;;;;;;;;;;19.97;55.48;101047.06;7395452;19;1860;-42
2023/02/18 11:25:55;;;;;;;;;;;;;;;19.99;55.20;101039.72;7396247;19;1766;-42
2023/02/18 11:28:32;;;;;;;;;;;;;;;20.09;54.78;101042.44;7387691;19;2153;-42
2023/02/18 11:31:02;;;;;;;;;;;;;;;19.85;55.44;101064.25;7395080;19;2056;-42
2023/02/18 11:33:34;;;;;;;;;;;;;;;19.22;57.01;101038.31;7395434;19;2062;-42
2023/02/18 11:36:06;;;;;;;;;;;;;;;18.78;58.24;101041.97;7392800;19;2047;-42
2023/02/18 11:38:37;;;;;;;;;;;;;;;18.51;58.48;101029.06;7393586;19;2353;-42
2023/02/18 11:41:09;;;;;;;;;;;;;;;18.60;58.57;101050.59;7396863;19;1925;-42
2023/02/18 11:43:40;;;;;;;;;;;;;;;19.28;56.72;101042.28;7397695;19;1650;-42
2023/02/18 11:46:12;;;;;;;;;;;;;;;19.48;56.32;101036.06;7396638;19;1776;-42
2023/02/18 11:48:40;;;;;;;;;;;;;;;18.95;57.82;101028.06;7398027;19;1998;-42
2023/02/18 11:51:17;;;;;;;;;;;;;;;18.56;58.66;101045.59;7397162;19;2012;-42
2023/02/18 11:53:58;;;;;;;;;;;;;;;18.54;58.71;101043.03;7397661;19;1875;-43
2023/02/18 11:56:30;;;;;;;;;;;;;;;19.25;56.70;101032.66;7395450;19;1859;-43
2023/02/18 11:58:58;;;;;;;;;;;;;;;19.48;56.25;101030.69;7394327;19;1743;-42
2023/02/18 12:01:31;;;;;;;;;;;;;;;19.00;57.40;101028.53;7396923;19;1709;-42
2023/02/18 12:04:01;;;;;;;;;;;;;;;18.57;58.71;101032.06;7397527;19;1617;-42
2023/02/18 12:06:30;;;;;;;;;;;;;;;18.60;58.60;101039.00;7396672;19;1839;-43
2023/02/18 12:09:02;;;;;;;;;;;;;;;19.15;57.29;101033.59;7397666;19;2032;-43
2023/02/18 12:11:35;;;;;;;;;;;;;;;19.66;55.79;101020.22;7395847;19;2035;-42
2023/02/18 12:14:03;;;;;;;;;;;;;;;19.17;56.95;101005.66;7396122;19;2219;-43
2023/02/18 12:16:36;;;;;;;;;;;;;;;18.62;58.27;101005.78;7396065;19;2770;-42
2023/02/18 12:19:12;;;;;;;;;;;;;;;18.48;58.70;101000.69;7396293;19;2014;-43
2023/02/18 12:21:46;;;;;;;;;;;;;;;18.90;57.87;100992.78;7395641;19;1958;-42
2023/02/18 12:24:20;;;;;;;;;;;;;;;19.52;56.03;100996.41;7397037;19;1863;-42
2023/02/18 12:26:58;;;;;;;;;;;;;;;19.12;57.08;100986.44;7397129;19;1855;-42
2023/02/18 12:29:40;;;;;;;;;;;;;;;18.62;58.63;101013.81;7397031;19;1580;-43
2023/02/18 12:32:14;;;;;;;;;;;;;;;18.47;58.81;100980.25;7396068;19;1959;-43
2023/02/18 12:34:47;;;;;;;;;;;;;;;18.94;57.58;100975.47;7396742;19;1821;-42
2023/02/18 12:37:30;;;;;;;;;;;;;;;19.46;56.26;100976.34;7400815;19;2042;-42
2023/02/18 12:40:05;;;;;;;;;;;;;;;19.01;57.20;100971.25;6875857;19;10000391;-42
2023/02/18 12:42:45;;;;;;;;;;;;;;;18.53;58.86;100987.78;7393014;19;1889;-42
2023/02/18 12:45:32;;;;;;;;;;;;;;;18.52;58.45;101006.66;7395907;19;2039;-43
2023/02/18 12:48:13;;;;;;;;;;;;;;;19.26;56.73;100999.53;7394032;19;2099;-43
2023/02/18 12:50:54;;;;;;;;;;;;;;;19.50;56.03;100968.88;7393257;19;1663;-43
2023/02/18 12:53:37;;;;;;;;;;;;;;;18.88;57.59;100970.63;7394830;19;2686;-43
2023/02/18 12:56:15;;;;;;;;;;;;;;;18.42;58.68;100964.59;7394248;19;2083;-42
2023/02/18 12:58:52;;;;;;;;;;;;;;;18.59;58.51;100968.53;6874712;19;10000491;-42
2023/02/18 13:01:31;;;;;;;;;;;;;;;19.42;56.33;100968.72;7394280;19;1936;-43
2023/02/18 13:04:20;;;;;;;;;;;;;;;19.27;56.62;100958.31;7396565;19;2251;-42